Time;durP1;ratioP1;P1;durP2;ratioP2;P2;SDS_P1;SDS_P2;PMS_P1;PMS_P2;Temp;Humidity;BMP_temperature;BMP_pressure;BME280_temperature;BME280_humidity;BME280_pressure;Samples;Min_cycle;Max_cycle;Signal;HPM_P1;HPM_P2
2024/02/23 00:01:05;;;;;;;1.60;1.50;;;11.10;99.90;;;;;;5003030;28;20993;-26
2024/02/23 00:03:36;;;;;;;1.70;1.60;;;11.10;99.90;;;;;;4990093;28;20439;-26
2024/02/23 00:10:03;;;;;;;1.80;1.70;;;11.10;99.90;;;;;;4985776;28;20912;-27
2024/02/23 00:12:29;;;;;;;1.87;1.30;;;11.20;99.90;;;;;;5003500;28;20523;-26
2024/02/23 00:14:56;;;;;;;1.53;1.43;;;11.10;99.90;;;;;;5004163;28;20975;-26
2024/02/23 00:21:49;;;;;;;1.47;1.37;;;11.10;99.90;;;;;;5002944;28;20474;-28
2024/02/23 00:24:20;;;;;;;1.83;1.73;;;11.10;99.90;;;;;;4993422;28;20452;-26
2024/02/23 00:26:51;;;;;;;1.70;1.60;;;11.10;99.90;;;;;;4968743;28;20440;-27
2024/02/23 00:29:17;;;;;;;1.90;1.67;;;11.10;99.90;;;;;;4986629;28;21339;-28
2024/02/23 00:31:46;;;;;;;1.43;1.33;;;11.10;99.90;;;;;;5002322;28;21082;-26
2024/02/23 00:34:13;;;;;;;1.63;1.53;;;11.10;99.90;;;;;;4993919;28;20486;-28
2024/02/23 00:37:34;;;;;;;1.83;1.73;;;11.10;99.90;;;;;;5003465;28;20439;-27
2024/02/23 00:40:10;;;;;;;1.83;1.73;;;11.10;99.90;;;;;;5017879;28;20476;-27
2024/02/23 00:42:39;;;;;;;1.90;1.60;;;11.10;99.90;;;;;;5026289;28;20470;-25
2024/02/23 00:45:08;;;;;;;3.73;1.87;;;11.00;99.90;;;;;;5001440;28;20433;-26
2024/02/23 00:47:35;;;;;;;1.97;1.87;;;11.00;99.90;;;;;;5006990;28;20794;-26
2024/02/23 00:50:04;;;;;;;1.70;1.60;;;11.00;99.90;;;;;;5028716;28;20865;-26
2024/02/23 00:52:32;;;;;;;2.10;1.70;;;11.00;99.90;;;;;;5015031;28;20519;-25
2024/02/23 00:54:58;;;;;;;1.47;1.37;;;11.00;99.90;;;;;;5010477;28;20453;-25
2024/02/23 00:57:29;;;;;;;1.70;1.60;;;10.90;99.90;;;;;;5026461;28;20420;-27
2024/02/23 00:59:56;;;;;;;2.40;1.70;;;11.00;99.90;;;;;;5011550;28;20472;-25
2024/02/23 01:02:24;;;;;;;1.90;1.80;;;11.00;99.90;;;;;;4993079;28;20567;-25
2024/02/23 01:04:56;;;;;;;1.50;1.40;;;11.00;99.90;;;;;;5019847;28;20530;-27
2024/02/23 01:07:23;;;;;;;1.90;1.80;;;11.00;99.90;;;;;;5030524;28;20845;-26
2024/02/23 01:09:51;;;;;;;3.03;1.60;;;11.00;99.90;;;;;;5021475;28;20440;-25
2024/02/23 01:12:19;;;;;;;1.80;1.70;;;11.00;99.90;;;;;;5012418;28;20427;-27
2024/02/23 01:14:48;;;;;;;1.70;1.60;;;11.00;99.90;;;;;;5025402;28;20464;-25
2024/02/23 01:17:17;;;;;;;2.70;1.77;;;11.00;99.90;;;;;;5031122;28;20884;-27
2024/02/23 01:19:45;;;;;;;1.50;1.40;;;11.00;99.90;;;;;;5014876;28;20439;-26
2024/02/23 01:22:11;;;;;;;3.27;1.70;;;11.00;99.90;;;;;;5031526;28;20477;-27
2024/02/23 01:24:39;;;;;;;1.73;1.63;;;11.00;99.90;;;;;;5005071;28;20452;-26
2024/02/23 01:27:06;;;;;;;1.90;1.80;;;11.00;99.90;;;;;;5021210;28;20420;-25
2024/02/23 01:29:32;;;;;;;2.20;1.70;;;10.90;99.90;;;;;;5025265;28;20423;-26
2024/02/23 01:31:59;;;;;;;1.83;1.73;;;10.90;99.90;;;;;;5017813;28;20926;-25
2024/02/23 01:34:27;;;;;;;2.23;1.73;;;10.90;99.90;;;;;;5022884;28;20459;-26
2024/02/23 01:36:53;;;;;;;1.70;1.60;;;11.00;99.90;;;;;;5028171;28;20431;-27
2024/02/23 01:39:19;;;;;;;2.00;1.90;;;10.90;99.90;;;;;;5027647;28;20423;-26
2024/02/23 01:41:45;;;;;;;2.33;2.13;;;10.90;99.90;;;;;;4995410;28;20558;-25
2024/02/23 01:44:11;;;;;;;1.63;1.53;;;10.90;99.90;;;;;;5123348;23;20489;-29
2024/02/23 01:46:38;;;;;;;2.80;1.70;;;10.90;99.90;;;;;;5039701;28;20410;-29
2024/02/23 01:49:05;;;;;;;2.23;1.80;;;10.90;99.90;;;;;;5057784;28;20414;-27
2024/02/23 01:51:31;;;;;;;1.70;1.60;;;10.90;99.90;;;;;;5057439;28;20429;-32
2024/02/23 01:53:57;;;;;;;1.80;1.63;;;10.90;99.90;;;;;;5058061;28;20834;-30
2024/02/23 01:56:24;;;;;;;3.30;1.50;;;10.90;99.90;;;;;;5058315;28;20410;-32
2024/02/23 01:58:50;;;;;;;2.03;1.50;;;10.90;99.90;;;;;;5057815;28;20405;-31
2024/02/23 02:01:16;;;;;;;1.60;1.50;;;10.70;99.90;;;;;;5059211;28;20458;-33
2024/02/23 02:03:43;;;;;;;3.50;2.40;;;10.80;99.90;;;;;;5040606;28;20442;-32
2024/02/23 02:06:10;;;;;;;3.00;1.90;;;10.80;99.90;;;;;;5041258;28;20863;-32
2024/02/23 02:08:39;;;;;;;1.90;1.80;;;10.80;99.90;;;;;;5040966;28;20429;-33
2024/02/23 02:11:05;;;;;;;1.60;1.50;;;10.80;99.90;;;;;;5058321;28;20417;-28
2024/02/23 02:13:33;;;;;;;3.60;2.03;;;10.70;99.90;;;;;;5040065;28;20445;-28
2024/02/23 02:16:01;;;;;;;2.23;1.83;;;10.80;99.90;;;;;;5058800;28;20411;-29
2024/02/23 02:18:30;;;;;;;3.20;1.80;;;10.80;99.90;;;;;;5040369;28;20945;-30
2024/02/23 02:20:57;;;;;;;2.90;1.90;;;10.70;99.90;;;;;;5023669;28;20465;-32
2024/02/23 02:23:26;;;;;;;1.87;1.60;;;10.70;99.90;;;;;;5040642;28;20430;-31
2024/02/23 02:25:57;;;;;;;2.77;1.60;;;10.70;99.90;;;;;;5040242;28;20398;-28
2024/02/23 02:28:25;;;;;;;1.80;1.70;;;10.70;99.90;;;;;;5023641;28;20811;-33
2024/02/23 02:30:55;;;;;;;2.60;2.30;;;10.70;99.90;;;;;;5058623;28;20429;-30
2024/02/23 02:33:22;;;;;;;4.97;1.63;;;10.70;99.90;;;;;;5057635;28;20523;-29
2024/02/23 02:35:51;;;;;;;1.87;1.63;;;10.70;99.90;;;;;;5058466;28;20425;-28
2024/02/23 02:38:18;;;;;;;3.90;2.00;;;10.70;99.90;;;;;;5040557;28;20410;-30
2024/02/23 02:40:44;;;;;;;3.80;2.17;;;10.70;99.90;;;;;;5059208;28;20504;-28
2024/02/23 02:43:10;;;;;;;2.70;1.87;;;10.60;99.90;;;;;;5040086;28;20441;-31
2024/02/23 02:45:38;;;;;;;3.77;1.70;;;10.60;99.90;;;;;;5058603;28;21011;-28
2024/02/23 02:48:04;;;;;;;3.00;1.80;;;10.60;99.90;;;;;;5058713;28;20429;-29
2024/02/23 02:50:35;;;;;;;10.50;1.90;;;10.60;99.90;;;;;;5024233;28;20854;-32
2024/02/23 02:53:01;;;;;;;2.20;2.00;;;10.60;99.90;;;;;;5040629;28;20929;-32
2024/02/23 02:55:29;;;;;;;1.90;1.80;;;10.60;99.90;;;;;;5039856;28;20418;-27
2024/02/23 02:57:55;;;;;;;2.70;2.00;;;10.50;99.90;;;;;;5058003;28;20450;-32
2024/02/23 03:00:21;;;;;;;1.77;1.67;;;10.50;99.90;;;;;;5040124;28;20449;-33
2024/02/23 03:02:47;;;;;;;3.37;1.70;;;10.50;99.90;;;;;;5040428;28;20464;-34
2024/02/23 03:05:16;;;;;;;3.40;2.00;;;10.50;99.90;;;;;;5058357;28;20444;-34
2024/02/23 03:07:46;;;;;;;2.77;2.10;;;10.50;99.90;;;;;;5039674;28;20454;-34
2024/02/23 03:10:12;;;;;;;4.40;1.90;;;10.60;99.90;;;;;;5039427;28;21128;-29
2024/02/23 03:12:38;;;;;;;2.13;1.97;;;10.50;99.90;;;;;;5040116;28;20483;-28
2024/02/23 03:15:05;;;;;;;2.50;1.80;;;10.50;99.90;;;;;;5039739;28;21105;-27
2024/02/23 03:17:31;;;;;;;1.77;1.67;;;10.50;99.90;;;;;;5057834;28;20475;-29
2024/02/23 03:19:57;;;;;;;5.30;2.03;;;10.50;99.90;;;;;;5057385;28;20414;-27
2024/02/23 03:22:23;;;;;;;2.07;1.83;;;10.50;99.90;;;;;;5058771;28;20449;-30
2024/02/23 03:24:49;;;;;;;3.60;2.03;;;10.50;99.90;;;;;;5059964;28;20525;-30
2024/02/23 03:27:28;;;;;;;2.80;2.10;;;10.40;99.90;;;;;;5059742;28;20442;-28
2024/02/23 03:29:54;;;;;;;2.47;1.93;;;10.40;99.90;;;;;;5060148;28;20421;-32
2024/02/23 03:32:22;;;;;;;2.63;1.90;;;10.40;99.90;;;;;;5041993;28;20430;-28
2024/02/23 03:34:48;;;;;;;3.57;1.90;;;10.50;99.90;;;;;;5061443;28;20294;-28
2024/02/23 03:37:14;;;;;;;2.80;2.13;;;10.40;99.90;;;;;;5062763;28;20509;-32
2024/02/23 03:39:40;;;;;;;5.03;2.53;;;10.50;99.90;;;;;;5027236;28;20281;-32
2024/02/23 03:42:12;;;;;;;5.90;1.70;;;10.40;99.90;;;;;;5063123;28;20495;-37
2024/02/23 03:44:38;;;;;;;2.57;1.87;;;10.40;99.90;;;;;;5064353;28;20461;-35
2024/02/23 03:47:04;;;;;;;3.03;2.27;;;10.40;99.90;;;;;;5064638;28;20414;-28
2024/02/23 03:49:31;;;;;;;2.40;2.20;;;10.40;99.90;;;;;;5062884;28;20433;-34
2024/02/23 03:51:59;;;;;;;4.27;2.33;;;10.40;99.90;;;;;;5011475;28;20422;-27
2024/02/23 03:54:28;;;;;;;2.90;2.00;;;10.40;99.90;;;;;;5030415;28;21368;-39
2024/02/23 03:56:54;;;;;;;5.57;2.50;;;10.40;99.90;;;;;;5033569;28;21014;-31
2024/02/23 03:59:20;;;;;;;4.00;2.80;;;10.40;99.90;;;;;;5031378;28;20434;-31
2024/02/23 04:01:46;;;;;;;2.10;2.00;;;10.40;99.90;;;;;;5038194;28;21091;-30
2024/02/23 04:04:12;;;;;;;2.10;2.00;;;10.40;99.90;;;;;;5055255;28;20490;-35
2024/02/23 04:06:38;;;;;;;2.40;2.00;;;10.40;99.90;;;;;;5036219;28;20430;-31
2024/02/23 04:09:08;;;;;;;1.87;1.77;;;10.40;99.90;;;;;;5056207;28;21078;-33
2024/02/23 04:11:34;;;;;;;1.90;1.80;;;10.40;99.90;;;;;;5037221;28;20426;-30
2024/02/23 04:14:01;;;;;;;2.73;2.20;;;10.40;99.90;;;;;;5057709;28;20453;-34
2024/02/23 04:16:27;;;;;;;4.20;2.00;;;10.40;99.90;;;;;;5042251;28;20438;-31
2024/02/23 04:18:54;;;;;;;5.00;1.90;;;10.40;99.90;;;;;;5025613;28;20465;-31
2024/02/23 04:21:22;;;;;;;3.43;2.20;;;10.40;99.90;;;;;;5025438;28;21361;-33
2024/02/23 04:23:48;;;;;;;3.87;2.57;;;10.30;99.90;;;;;;5042535;28;20952;-33
2024/02/23 04:26:17;;;;;;;3.10;2.30;;;10.30;99.90;;;;;;5023148;28;20529;-32
2024/02/23 04:28:45;;;;;;;4.13;2.40;;;10.30;99.90;;;;;;5042023;28;20509;-30
2024/02/23 04:31:12;;;;;;;3.27;2.20;;;10.30;99.90;;;;;;5060923;28;20426;-34
2024/02/23 04:33:38;;;;;;;2.17;2.00;;;10.30;99.90;;;;;;5060352;28;20536;-33
2024/02/23 04:36:04;;;;;;;3.77;3.47;;;10.30;99.90;;;;;;5060444;28;20517;-35
2024/02/23 04:38:31;;;;;;;3.10;2.30;;;10.30;99.90;;;;;;5056234;28;20458;-31
2024/02/23 04:40:58;;;;;;;3.13;2.17;;;10.30;99.90;;;;;;5042549;28;20479;-31
2024/02/23 04:43:26;;;;;;;2.60;2.40;;;10.30;99.90;;;;;;5043487;28;20530;-29
2024/02/23 04:45:53;;;;;;;7.97;3.03;;;10.30;99.90;;;;;;5043878;28;20418;-34
2024/02/23 04:48:19;;;;;;;3.60;2.40;;;10.30;99.90;;;;;;5026151;28;20567;-29
2024/02/23 04:50:45;;;;;;;2.37;2.27;;;10.30;99.90;;;;;;5060324;28;20430;-33
2024/02/23 04:53:11;;;;;;;2.00;1.90;;;10.30;99.90;;;;;;5060633;28;20414;-33
2024/02/23 04:55:40;;;;;;;5.47;2.27;;;10.30;99.90;;;;;;5059921;28;20480;-31
2024/02/23 04:58:06;;;;;;;6.60;2.40;;;10.30;99.90;;;;;;5059227;28;20910;-31
2024/02/23 05:00:33;;;;;;;4.87;2.40;;;10.30;99.90;;;;;;5040906;28;20466;-32
2024/02/23 05:03:02;;;;;;;2.00;1.90;;;10.30;99.90;;;;;;5059512;28;20415;-31
2024/02/23 05:05:31;;;;;;;2.43;2.10;;;10.30;99.90;;;;;;5036705;28;20422;-34
2024/02/23 05:07:57;;;;;;;2.10;2.00;;;10.30;99.90;;;;;;5059614;28;20464;-29
2024/02/23 05:10:26;;;;;;;2.57;2.20;;;10.20;99.90;;;;;;5058653;28;20469;-33
2024/02/23 05:12:52;;;;;;;5.20;2.30;;;10.30;99.90;;;;;;5042052;28;20847;-31
2024/02/23 05:15:18;;;;;;;2.00;1.80;;;10.30;99.90;;;;;;5059349;28;20438;-31
2024/02/23 05:17:47;;;;;;;3.07;2.30;;;10.30;99.90;;;;;;5020944;28;21494;-32
2024/02/23 05:20:15;;;;;;;2.23;2.03;;;10.30;99.90;;;;;;5039161;28;20466;-34
2024/02/23 05:22:44;;;;;;;3.60;2.47;;;10.20;99.90;;;;;;5058574;28;20444;-31
2024/02/23 05:25:10;;;;;;;2.50;1.70;;;10.30;99.90;;;;;;5039213;28;20475;-30
2024/02/23 05:27:36;;;;;;;4.30;2.10;;;10.20;99.90;;;;;;5040258;28;20422;-34
2024/02/23 05:30:02;;;;;;;2.07;1.77;;;10.20;99.90;;;;;;5058594;28;20975;-32
2024/02/23 05:32:28;;;;;;;3.43;2.10;;;10.20;99.90;;;;;;5058589;28;20460;-31
2024/02/23 05:34:56;;;;;;;3.93;2.87;;;10.20;99.90;;;;;;5059116;28;20936;-30
2024/02/23 05:37:23;;;;;;;3.67;2.10;;;10.20;99.90;;;;;;5059766;28;20481;-34
2024/02/23 05:39:55;;;;;;;2.70;2.30;;;10.20;99.90;;;;;;5024234;28;20453;-32
2024/02/23 05:42:21;;;;;;;2.10;2.00;;;10.20;99.90;;;;;;5058518;28;20418;-33
2024/02/23 05:44:48;;;;;;;5.13;1.93;;;10.40;99.90;;;;;;5058196;28;20456;-34
2024/02/23 05:47:14;;;;;;;3.13;2.37;;;10.20;99.90;;;;;;5058423;28;20509;-32
2024/02/23 05:49:41;;;;;;;4.60;2.30;;;10.20;99.90;;;;;;5058101;28;20541;-30
2024/02/23 05:52:07;;;;;;;2.60;1.80;;;10.20;99.90;;;;;;5058208;28;20417;-31
2024/02/23 05:54:35;;;;;;;6.23;2.03;;;10.20;99.90;;;;;;5058704;28;20952;-35
2024/02/23 05:57:04;;;;;;;4.87;2.10;;;10.20;99.90;;;;;;5059120;28;20442;-33
2024/02/23 05:59:30;;;;;;;2.43;2.13;;;10.20;99.90;;;;;;5059466;28;20432;-30
2024/02/23 06:01:56;;;;;;;3.30;1.60;;;10.20;99.90;;;;;;5058238;28;20462;-32
2024/02/23 06:04:27;;;;;;;2.80;1.80;;;10.20;99.90;;;;;;5040428;28;20454;-32
2024/02/23 06:06:53;;;;;;;3.70;2.27;;;10.20;99.90;;;;;;5058339;28;20432;-33
2024/02/23 06:09:19;;;;;;;2.50;1.53;;;10.20;99.90;;;;;;5040420;28;20442;-33
2024/02/23 06:11:45;;;;;;;4.27;3.17;;;10.20;99.90;;;;;;5039086;28;20434;-32
2024/02/23 06:14:11;;;;;;;2.00;1.90;;;10.20;99.90;;;;;;5058879;28;20489;-34
2024/02/23 06:16:37;;;;;;;2.40;1.80;;;10.20;99.90;;;;;;5040211;28;20433;-35
2024/02/23 06:19:05;;;;;;;2.80;2.10;;;10.20;99.90;;;;;;5023237;28;20515;-32
2024/02/23 06:21:32;;;;;;;2.73;2.20;;;10.20;99.90;;;;;;5059069;28;20215;-32
2024/02/23 06:23:58;;;;;;;3.63;2.00;;;10.10;99.90;;;;;;5029450;28;20450;-30
2024/02/23 06:26:24;;;;;;;5.13;2.30;;;10.10;99.90;;;;;;5039899;28;20422;-31
2024/02/23 06:28:50;;;;;;;3.00;2.00;;;10.10;99.90;;;;;;5057542;28;20507;-33
2024/02/23 06:31:18;;;;;;;2.40;2.20;;;10.10;99.90;;;;;;5057726;28;20496;-32
2024/02/23 06:33:48;;;;;;;6.43;1.93;;;10.10;99.90;;;;;;5040016;28;20446;-34
2024/02/23 06:36:18;;;;;;;5.13;2.03;;;10.10;99.90;;;;;;5055534;28;20977;-33
2024/02/23 06:38:49;;;;;;;4.00;2.30;;;10.10;99.90;;;;;;5037754;28;20426;-30
2024/02/23 06:41:17;;;;;;;2.30;2.00;;;10.10;99.90;;;;;;5057534;28;20547;-30
2024/02/23 06:43:44;;;;;;;2.80;2.50;;;10.10;99.90;;;;;;5053414;28;20583;-33
2024/02/23 06:46:10;;;;;;;3.07;1.90;;;10.10;99.90;;;;;;5041117;28;20438;-34
2024/02/23 06:48:39;;;;;;;2.17;1.70;;;10.10;99.90;;;;;;5026542;28;20430;-30
2024/02/23 06:51:10;;;;;;;2.80;2.57;;;10.10;99.90;;;;;;5038245;28;20426;-30
2024/02/23 06:53:38;;;;;;;4.10;2.00;;;10.10;99.90;;;;;;5035607;28;20465;-34
2024/02/23 06:56:10;;;;;;;3.67;2.30;;;9.90;99.90;;;;;;5055892;28;20432;-29
2024/02/23 06:58:39;;;;;;;2.90;2.50;;;10.10;99.90;;;;;;5055899;28;20438;-31
2024/02/23 07:01:11;;;;;;;2.80;2.17;;;10.10;99.90;;;;;;5038244;28;21415;-34
2024/02/23 07:03:37;;;;;;;4.90;1.70;;;10.10;99.90;;;;;;5038178;28;20460;-31
2024/02/23 07:06:06;;;;;;;1.90;1.80;;;10.00;99.90;;;;;;5039451;28;21113;-31
2024/02/23 07:08:36;;;;;;;3.73;1.90;;;10.10;99.90;;;;;;5021911;28;20833;-31
2024/02/23 07:11:02;;;;;;;4.30;2.30;;;10.10;99.90;;;;;;5038275;28;20429;-31
2024/02/23 07:13:29;;;;;;;2.13;1.93;;;10.10;99.90;;;;;;5056683;28;20449;-32
2024/02/23 07:15:56;;;;;;;4.37;1.93;;;9.70;99.90;;;;;;5057901;28;21099;-34
2024/02/23 07:18:22;;;;;;;4.00;1.80;;;10.10;99.90;;;;;;5038807;28;20421;-31
2024/02/23 07:20:50;;;;;;;5.13;2.33;;;10.10;99.90;;;;;;5037270;28;20480;-31
2024/02/23 07:23:17;;;;;;;3.30;2.30;;;10.10;99.90;;;;;;5056817;28;20438;-30
2024/02/23 07:25:47;;;;;;;7.90;2.00;;;10.10;99.90;;;;;;5039536;28;20418;-30
2024/02/23 07:28:18;;;;;;;3.60;2.20;;;10.10;99.90;;;;;;5044022;28;20454;-33
2024/02/23 07:30:44;;;;;;;3.80;2.30;;;10.10;99.90;;;;;;5054028;28;20976;-29
2024/02/23 07:33:10;;;;;;;3.40;1.70;;;10.10;99.90;;;;;;5053140;28;20449;-28
2024/02/23 07:35:36;;;;;;;2.47;2.27;;;9.90;99.90;;;;;;5034975;28;20426;-29
2024/02/23 07:38:05;;;;;;;3.93;2.23;;;10.00;99.90;;;;;;5033420;28;20438;-29
2024/02/23 07:40:34;;;;;;;6.57;2.00;;;10.00;99.90;;;;;;5052765;28;20484;-29
2024/02/23 07:43:00;;;;;;;3.20;2.20;;;10.10;99.90;;;;;;5033162;28;20426;-28
2024/02/23 07:45:28;;;;;;;3.27;1.93;;;10.00;99.90;;;;;;5053550;28;20551;-29
2024/02/23 07:47:57;;;;;;;2.03;1.83;;;10.00;99.90;;;;;;5054769;28;20514;-29
2024/02/23 07:50:23;;;;;;;4.00;2.03;;;10.00;99.90;;;;;;5021904;28;20441;-29
2024/02/23 07:52:49;;;;;;;7.60;2.50;;;10.00;99.90;;;;;;5058524;28;20429;-30
2024/02/23 07:55:20;;;;;;;2.90;1.80;;;10.00;99.90;;;;;;5038476;28;20442;-30
2024/02/23 07:57:52;;;;;;;3.63;2.33;;;10.00;99.90;;;;;;5040560;28;20445;-29
2024/02/23 08:00:18;;;;;;;6.23;2.23;;;10.00;99.90;;;;;;5057033;28;20569;-31
2024/02/23 08:02:44;;;;;;;3.47;2.37;;;10.00;99.90;;;;;;5057631;28;20457;-30
2024/02/23 08:05:11;;;;;;;3.23;2.07;;;10.20;99.90;;;;;;5058727;28;20493;-29
2024/02/23 08:07:37;;;;;;;4.93;2.07;;;10.00;99.90;;;;;;5058898;28;20846;-32
2024/02/23 08:10:04;;;;;;;2.83;2.43;;;10.00;99.90;;;;;;5058924;28;20526;-30
2024/02/23 08:12:32;;;;;;;4.90;2.10;;;10.00;99.90;;;;;;5041456;28;20483;-29
2024/02/23 08:14:58;;;;;;;5.90;1.90;;;10.00;99.90;;;;;;5059105;28;20912;-28
2024/02/23 08:17:25;;;;;;;2.13;1.73;;;10.00;99.90;;;;;;5039792;28;20421;-30
2024/02/23 08:19:51;;;;;;;2.07;1.80;;;10.20;99.90;;;;;;5040968;28;20417;-30
2024/02/23 08:22:17;;;;;;;2.13;1.70;;;10.00;99.90;;;;;;5024191;28;20465;-29
2024/02/23 08:24:43;;;;;;;3.27;1.90;;;10.00;99.90;;;;;;5058020;28;20517;-27
2024/02/23 08:27:12;;;;;;;5.93;2.00;;;10.00;99.90;;;;;;5037970;28;20901;-30
2024/02/23 08:29:39;;;;;;;4.73;2.17;;;10.00;99.90;;;;;;5056637;28;20414;-28
2024/02/23 08:32:05;;;;;;;2.70;2.10;;;10.00;99.90;;;;;;5039726;28;20432;-28
2024/02/23 08:34:35;;;;;;;3.23;1.97;;;10.00;99.90;;;;;;5024864;28;20492;-28
2024/02/23 08:37:07;;;;;;;2.13;1.73;;;10.10;99.90;;;;;;5040133;28;20433;-28
2024/02/23 08:39:36;;;;;;;2.80;1.90;;;10.00;99.90;;;;;;5041140;28;20491;-28
2024/02/23 08:42:03;;;;;;;2.30;1.90;;;10.00;99.90;;;;;;5035802;28;20473;-32
2024/02/23 08:44:32;;;;;;;3.57;1.73;;;10.00;99.90;;;;;;5054532;28;20460;-29
2024/02/23 08:46:58;;;;;;;2.33;1.70;;;10.00;99.90;;;;;;5038729;28;20426;-29
2024/02/23 08:49:25;;;;;;;9.47;2.20;;;10.00;99.90;;;;;;5038491;28;20453;-28
2024/02/23 08:52:15;;;;;;;6.37;2.10;;;10.00;99.90;;;;;;5059093;28;21009;-31
2024/02/23 08:54:44;;;;;;;2.80;2.00;;;10.00;99.90;;;;;;5037593;28;20465;-29
2024/02/23 08:57:19;;;;;;;6.70;2.43;;;10.00;99.90;;;;;;5057556;28;20434;-28
2024/02/23 08:59:46;;;;;;;2.60;2.27;;;10.00;99.90;;;;;;5057479;28;20540;-29
2024/02/23 09:02:15;;;;;;;5.57;2.30;;;10.00;99.90;;;;;;5037305;28;20556;-30
2024/02/23 09:04:41;;;;;;;3.37;2.17;;;10.00;99.90;;;;;;5038229;28;20879;-30
2024/02/23 09:07:09;;;;;;;2.23;1.90;;;10.00;99.90;;;;;;5057826;28;20513;-29
2024/02/23 09:09:36;;;;;;;4.10;1.97;;;10.00;99.90;;;;;;5039132;28;21284;-29
2024/02/23 09:12:02;;;;;;;2.63;2.00;;;10.00;99.90;;;;;;5036447;28;21046;-28
2024/02/23 09:14:30;;;;;;;6.60;2.43;;;10.00;99.90;;;;;;5040309;28;20445;-28
2024/02/23 09:16:58;;;;;;;2.87;2.00;;;10.00;99.90;;;;;;5058216;28;20426;-28
2024/02/23 09:19:25;;;;;;;4.20;2.20;;;9.90;99.90;;;;;;5057759;28;20524;-30
2024/02/23 09:21:51;;;;;;;2.10;1.90;;;10.00;99.90;;;;;;5056991;28;20466;-29
2024/02/23 09:24:19;;;;;;;4.67;2.10;;;10.00;99.90;;;;;;5058682;28;20461;-29
2024/02/23 09:26:50;;;;;;;3.40;3.10;;;10.00;99.90;;;;;;5057998;28;20488;-28
2024/02/23 09:29:16;;;;;;;1.97;1.80;;;10.00;99.90;;;;;;5041681;28;20482;-29
2024/02/23 09:31:42;;;;;;;7.17;2.03;;;9.90;99.90;;;;;;5056739;28;20884;-36
2024/02/23 09:34:11;;;;;;;6.40;2.30;;;10.00;99.90;;;;;;5056755;28;20647;-34
2024/02/23 09:36:37;;;;;;;3.40;1.83;;;10.00;99.90;;;;;;5055909;28;21230;-38
2024/02/23 09:39:04;;;;;;;5.73;2.90;;;10.00;99.90;;;;;;5057432;28;20511;-37
2024/02/23 09:41:36;;;;;;;3.73;2.07;;;10.00;99.90;;;;;;5040783;28;20466;-39
2024/02/23 09:44:03;;;;;;;2.97;2.07;;;10.00;99.90;;;;;;5060482;28;20489;-28
2024/02/23 09:46:35;;;;;;;4.97;2.13;;;9.90;99.90;;;;;;5038080;28;21027;-30
2024/02/23 09:49:03;;;;;;;2.30;2.10;;;10.00;99.90;;;;;;5066256;28;20743;-30
2024/02/23 09:51:33;;;;;;;4.80;2.43;;;10.00;99.90;;;;;;5051436;22;20438;31
2024/02/23 09:54:02;;;;;;;4.40;2.57;;;10.00;99.90;;;;;;4917156;29;20482;-82
2024/02/23 09:56:33;;;;;;;6.20;2.37;;;10.00;99.90;;;;;;4907012;29;20452;-82
2024/02/23 09:59:03;;;;;;;7.80;2.20;;;10.00;99.90;;;;;;4913407;29;20438;-82
2024/02/23 10:01:32;;;;;;;3.13;2.20;;;10.00;99.90;;;;;;4940709;29;20468;-84
2024/02/23 10:04:04;;;;;;;3.33;2.30;;;10.00;99.90;;;;;;4940066;29;20459;-82
2024/02/23 10:06:32;;;;;;;5.83;2.70;;;10.00;99.90;;;;;;4927504;29;20448;-81
2024/02/23 10:08:58;;;;;;;4.77;2.40;;;10.00;99.90;;;;;;4930630;29;20424;-80
2024/02/23 10:11:25;;;;;;;3.40;2.20;;;10.00;99.90;;;;;;4914363;29;20521;-82
2024/02/23 10:13:54;;;;;;;3.67;2.53;;;10.00;99.90;;;;;;4898798;29;20456;-81
2024/02/23 10:16:23;;;;;;;5.03;2.50;;;10.00;99.90;;;;;;4929985;29;20814;-80
2024/02/23 10:18:50;;;;;;;6.80;2.43;;;10.00;99.90;;;;;;4898324;29;21260;-81
2024/02/23 10:21:16;;;;;;;3.60;2.00;;;10.00;99.90;;;;;;4929501;29;20482;-82
2024/02/23 10:23:46;;;;;;;4.00;2.10;;;10.00;99.90;;;;;;4913632;29;20555;-81
2024/02/23 10:26:18;;;;;;;4.93;2.33;;;10.00;99.90;;;;;;4907520;29;20458;-80
2024/02/23 10:28:47;;;;;;;3.57;2.20;;;10.00;99.90;;;;;;4913123;29;20981;-82
2024/02/23 10:31:15;;;;;;;2.70;1.83;;;10.00;99.90;;;;;;4913701;29;20471;-85
2024/02/23 10:33:42;;;;;;;3.50;2.10;;;10.00;99.90;;;;;;4897912;29;20433;-83
2024/02/23 10:36:15;;;;;;;3.77;2.10;;;10.00;99.90;;;;;;4887122;29;20444;-82
2024/02/23 10:38:45;;;;;;;3.27;2.40;;;10.00;99.90;;;;;;4930324;29;20437;-82
2024/02/23 10:41:16;;;;;;;3.47;2.37;;;10.00;99.90;;;;;;4913668;29;20475;-82
2024/02/23 10:43:48;;;;;;;5.63;2.10;;;10.00;99.90;;;;;;4884676;29;20778;-81
2024/02/23 10:46:17;;;;;;;2.27;2.00;;;10.00;99.90;;;;;;4918031;29;20429;-82
2024/02/23 10:48:45;;;;;;;2.23;2.03;;;10.10;99.90;;;;;;4914025;29;20519;-81
2024/02/23 10:51:14;;;;;;;3.03;2.30;;;10.00;99.90;;;;;;4922971;29;20882;-83
2024/02/23 10:53:46;;;;;;;2.23;1.63;;;10.00;99.90;;;;;;4921961;29;20559;-80
2024/02/23 10:56:13;;;;;;;3.30;2.20;;;10.00;99.90;;;;;;4903589;29;20478;-84
2024/02/23 10:58:39;;;;;;;2.03;1.83;;;10.00;99.90;;;;;;4933193;29;20427;-82
2024/02/23 11:01:08;;;;;;;3.00;2.70;;;10.00;99.90;;;;;;4938620;29;20491;-82
2024/02/23 11:03:36;;;;;;;3.83;2.20;;;10.00;99.60;;;;;;4929667;29;20447;-82
2024/02/23 11:06:08;;;;;;;3.80;2.27;;;10.00;99.30;;;;;;4933655;29;21132;-83
2024/02/23 11:08:36;;;;;;;3.70;1.90;;;10.00;99.30;;;;;;4948046;28;20423;-84
2024/02/23 11:11:09;;;;;;;4.33;1.93;;;10.00;99.20;;;;;;4932724;29;20995;-82
2024/02/23 11:13:38;;;;;;;4.03;1.73;;;10.00;99.30;;;;;;4941100;29;20971;-82
2024/02/23 11:16:06;;;;;;;4.90;2.30;;;10.00;99.50;;;;;;4949504;28;20446;-82
2024/02/23 11:18:34;;;;;;;2.70;1.90;;;10.10;99.30;;;;;;4932786;29;20420;-82
2024/02/23 11:21:06;;;;;;;3.03;1.57;;;10.10;99.20;;;;;;4948937;29;20485;-81
2024/02/23 11:23:48;;;;;;;3.77;1.80;;;10.10;99.10;;;;;;4932527;29;20442;-83
2024/02/23 11:27:00;;;;;;;5.60;2.10;;;10.10;99.40;;;;;;4937638;29;20772;-83
2024/02/23 11:29:28;;;;;;;3.47;2.90;;;10.30;99.70;;;;;;4938399;29;20423;-83
2024/02/23 11:32:01;;;;;;;2.10;2.00;;;10.30;99.70;;;;;;4950262;29;20463;-84
2024/02/23 11:34:30;;;;;;;2.87;2.10;;;10.10;99.50;;;;;;4954544;29;20445;-83
2024/02/23 11:41:00;;;;;;;2.60;2.33;;;9.90;99.90;;;;;;4937619;29;20630;-83
2024/02/23 11:43:26;;;;;;;2.77;1.77;;;10.10;99.60;;;;;;4955983;28;20509;-83
2024/02/23 11:45:52;;;;;;;3.70;1.60;;;10.10;99.90;;;;;;4941602;29;20558;-84
2024/02/23 11:48:21;;;;;;;4.00;1.90;;;10.70;99.80;;;;;;4952902;29;20423;-84
2024/02/23 11:50:51;;;;;;;2.30;1.90;;;10.10;99.80;;;;;;4935352;29;20768;-83
2024/02/23 11:53:21;;;;;;;2.80;1.90;;;10.40;99.20;;;;;;4942626;29;20747;-83
2024/02/23 11:55:49;;;;;;;3.80;2.23;;;10.10;99.00;;;;;;4954066;29;20438;-84
2024/02/23 11:58:16;;;;;;;3.10;1.93;;;10.10;99.00;;;;;;4946876;29;20809;-83
2024/02/23 12:00:42;;;;;;;2.73;2.53;;;10.10;99.00;;;;;;4952636;29;20481;-84
2024/02/23 12:03:08;;;;;;;3.93;2.00;;;10.10;99.00;;;;;;4921048;29;20435;-84
2024/02/23 12:05:36;;;;;;;3.03;2.13;;;10.10;98.60;;;;;;4956173;28;20422;-83
2024/02/23 12:08:05;;;;;;;3.50;2.17;;;10.10;98.50;;;;;;4951092;29;20470;-84
2024/02/23 12:10:34;;;;;;;3.13;2.33;;;10.10;98.80;;;;;;4929458;29;20542;-82
2024/02/23 12:13:00;;;;;;;2.90;2.10;;;10.10;98.90;;;;;;4954872;29;20423;-83
2024/02/23 12:15:31;;;;;;;2.10;1.90;;;10.10;99.20;;;;;;4954105;29;20461;-86
2024/02/23 12:18:00;;;;;;;3.30;2.53;;;10.10;98.80;;;;;;4954543;28;20419;-85
2024/02/23 12:20:26;;;;;;;8.33;2.50;;;10.10;98.40;;;;;;4921144;29;20474;-84
2024/02/23 12:22:56;;;;;;;4.00;2.30;;;10.10;98.20;;;;;;4920840;29;20478;-83
2024/02/23 12:25:22;;;;;;;6.73;2.80;;;10.10;98.50;;;;;;4938360;28;20831;-85
2024/02/23 12:27:54;;;;;;;5.83;3.07;;;10.10;98.70;;;;;;4940104;29;20432;-84
2024/02/23 12:30:20;;;;;;;3.33;2.30;;;10.20;98.90;;;;;;4962664;28;20424;-83
2024/02/23 12:32:46;;;;;;;3.83;2.43;;;10.20;98.80;;;;;;4946285;29;20449;-82
2024/02/23 12:35:12;;;;;;;4.03;2.47;;;10.10;98.60;;;;;;4935763;28;20439;-85
2024/02/23 12:37:41;;;;;;;4.50;2.50;;;10.10;98.40;;;;;;4936290;29;20952;-83
2024/02/23 12:40:09;;;;;;;4.80;2.30;;;10.20;98.70;;;;;;4919771;29;20551;-82
2024/02/23 12:42:37;;;;;;;2.40;2.17;;;10.10;98.60;;;;;;4936410;29;20944;-83
2024/02/23 12:45:03;;;;;;;3.03;2.17;;;10.20;98.80;;;;;;4936039;29;20435;-82
2024/02/23 12:47:29;;;;;;;6.40;2.27;;;10.20;99.00;;;;;;4953068;28;20447;-83
2024/02/23 12:49:58;;;;;;;4.30;2.37;;;10.20;99.30;;;;;;4953216;28;20586;-81
2024/02/23 12:52:26;;;;;;;3.50;2.13;;;10.20;99.50;;;;;;4934877;29;21140;-83
2024/02/23 12:54:52;;;;;;;2.73;2.03;;;10.20;99.60;;;;;;4951147;29;20443;-83
2024/02/23 12:57:22;;;;;;;4.57;2.17;;;10.20;99.60;;;;;;4955223;28;20916;-83
2024/02/23 12:59:48;;;;;;;2.17;1.97;;;10.60;99.80;;;;;;4920001;29;20442;-83
2024/02/23 13:02:17;;;;;;;4.10;1.93;;;10.20;99.00;;;;;;4940229;29;20475;-81
2024/02/23 13:04:48;;;;;;;2.03;1.80;;;10.20;99.20;;;;;;4919611;29;20307;-82